KCNY/CNY METAR and TAF weather

Enter ICAO airport designator
Station Type Date Time Source
KCNY METAR 2021/07/26 16:53 UTC NOAA

KCNY 261653Z AUTO 11004KT 10SM CLR 28/12 A3013 RMK AO2 SLP135 T02780122


Station Type Date Time Source
KCNY Decoded METAR 2021/07/26 16:53 UTC NOAA

MOAB CANYONLANDS FIELD, UT, United States (KCNY) 38-46N 109-45W 1390M
Jul 26, 2021 - 12:53 PM EDT / 2021.07.26 1653 UTC
Wind: from the ESE (110 degrees) at 5 MPH (4 KT):0
Visibility: 10 mile(s):0
Sky conditions: clear
Temperature: 82.0 F (27.8 C)
Dew Point: 54.0 F (12.2 C)
Relative Humidity: 38%
Pressure (altimeter): 30.13 in. Hg (1020 hPa)
ob: KCNY 261653Z AUTO 11004KT 10SM CLR 28/12 A3013 RMK AO2 SLP135 T02780122
cycle: 17

Station Type Date Time Source
KCNY TAF 2021/07/26 12:27 UTC NOAA

TAF KCNY 261125Z 2612/2712 09008KT P6SM FEW120 BKN250
FM261700 15006KT P6SM FEW080 SCT250
FM270200 17012KT P6SM VCTS FEW080CB BKN100
FM270600 11010KT P6SM VCSH SCT080 BKN100

Example: see airport list